Time;durP1;ratioP1;P1;durP2;ratioP2;P2;SDS_P1;SDS_P2;PMS_P1;PMS_P2;Temp;Humidity;BMP_temperature;BMP_pressure;BME280_temperature;BME280_humidity;BME280_pressure;Samples;Min_cycle;Max_cycle;Signal;HPM_P1;HPM_P2
2021/10/26 04:33:29;;;;;;;;;45.00;34.60;;;;;7.75;47.49;99376.13;7677356;22;98089;-64
2021/10/26 04:36:32;;;;;;;;;42.00;34.00;;;;;7.77;47.46;99376.78;7671862;22;96367;-64
2021/10/26 04:39:36;;;;;;;;;38.00;32.00;;;;;7.79;47.41;99370.19;7696930;22;97395;-63
2021/10/26 04:42:40;;;;;;;;;41.20;34.40;;;;;7.81;47.43;99383.44;7671332;22;97273;-63
2021/10/26 04:45:46;;;;;;;;;40.80;35.00;;;;;7.84;47.31;99391.09;7644812;22;97241;-64
2021/10/26 04:48:55;;;;;;;;;43.40;33.80;;;;;7.78;47.64;99392.69;7671019;22;97223;-63
2021/10/26 04:51:59;;;;;;;;;42.50;33.25;;;;;7.73;47.42;99387.06;7696405;22;97575;-63
2021/10/26 04:55:03;;;;;;;;;41.00;34.40;;;;;7.65;47.38;99381.81;7697874;22;97015;-63
2021/10/26 04:58:06;;;;;;;;;45.60;34.20;;;;;7.62;47.53;99390.25;7643843;22;96591;-63
2021/10/26 05:01:29;;;;;;;;;45.33;36.00;;;;;7.56;47.44;99384.81;7646143;22;96735;-64
2021/10/26 05:04:35;;;;;;;;;41.20;34.20;;;;;7.56;47.77;99377.59;7670786;22;99449;-64
2021/10/26 05:07:39;;;;;;;;;40.00;33.00;;;;;7.61;48.07;99379.72;7696821;22;96912;-63
2021/10/26 05:10:43;;;;;;;;;42.00;33.00;;;;;7.69;48.31;99382.25;7671310;22;97427;-63
2021/10/26 05:13:47;;;;;;;;;37.40;33.00;;;;;7.78;48.59;99381.13;7641324;22;98404;-64
2021/10/26 05:17:12;;;;;;;;;39.00;33.00;;;;;7.86;48.05;99383.69;7696436;22;97610;-64
2021/10/26 05:20:36;;;;;;;;;41.00;33.00;;;;;7.86;47.72;99389.06;7693217;22;97291;-64
2021/10/26 05:24:00;;;;;;;;;40.00;34.00;;;;;7.82;47.45;99396.63;7656587;22;97636;-63
2021/10/26 05:27:11;;;;;;;;;39.75;33.00;;;;;7.71;47.48;99393.66;7671555;22;97436;-63
2021/10/26 05:30:15;;;;;;;;;39.75;32.50;;;;;7.49;47.45;99397.31;7695690;22;97269;-63
2021/10/26 05:33:18;;;;;;;;;38.00;33.60;;;;;7.39;47.59;99398.44;7696378;22;97409;-63
2021/10/26 05:36:23;;;;;;;;;38.60;32.00;;;;;7.40;47.54;99396.59;7698437;22;96463;-63
2021/10/26 05:39:27;;;;;;;;;37.00;32.00;;;;;7.44;47.53;99400.56;7697354;22;97276;-63
2021/10/26 05:42:30;;;;;;;;;38.40;33.00;;;;;7.58;47.84;99410.44;7696362;22;97062;-64
2021/10/26 05:45:33;;;;;;;;;37.00;32.20;;;;;8.00;48.39;99411.47;7699764;22;97295;-64
2021/10/26 05:48:37;;;;;;;;;40.67;33.00;;;;;8.25;47.64;99413.59;7696281;22;97580;-64
2021/10/26 05:51:41;;;;;;;;;40.00;32.40;;;;;8.44;47.17;99412.09;7696332;22;98285;-63
2021/10/26 05:54:45;;;;;;;;;38.00;33.00;;;;;8.80;47.56;99417.28;7643383;22;97116;-63
2021/10/26 05:57:49;;;;;;;;;36.50;32.00;;;;;8.75;45.13;99419.75;7698441;22;97463;-63
2021/10/26 06:00:52;;;;;;;;;37.50;32.00;;;;;8.79;44.76;99429.09;7698085;22;96364;-64
2021/10/26 06:03:56;;;;;;;;;40.33;33.33;;;;;8.94;44.61;99420.91;7671071;22;97344;-64
2021/10/26 06:07:00;;;;;;;;;39.40;33.00;;;;;9.31;43.70;99422.34;7671417;22;96219;-62
2021/10/26 06:10:05;;;;;;;;;39.00;32.75;;;;;10.02;42.76;99426.25;7671285;22;96616;-64
2021/10/26 06:13:10;;;;;;;;;39.00;33.00;;;;;10.60;41.72;99434.63;7669540;22;97755;-63
2021/10/26 06:16:14;;;;;;;;;40.25;33.00;;;;;11.07;40.93;99438.91;7670597;22;97299;-64
2021/10/26 06:19:20;;;;;;;;;41.00;33.00;;;;;11.83;39.44;99433.63;7668486;22;97250;-64
2021/10/26 06:22:24;;;;;;;;;38.00;33.00;;;;;12.34;38.81;99439.75;7670731;22;96504;-64
2021/10/26 06:25:29;;;;;;;;;44.00;35.00;;;;;12.72;38.04;99441.50;7644710;22;96605;-64
2021/10/26 06:29:01;;;;;;;;;40.75;33.75;;;;;13.65;36.51;99447.63;7697538;22;96760;-64
2021/10/26 06:32:06;;;;;;;;;39.60;33.00;;;;;14.12;35.27;99452.16;7698666;22;97439;-63
2021/10/26 06:35:10;;;;;;;;;40.75;33.75;;;;;14.85;33.74;99451.06;7666827;22;99409;-64
2021/10/26 06:38:15;;;;;;;;;39.40;34.00;;;;;15.46;32.64;99454.06;7696032;22;97244;-63
2021/10/26 06:41:19;;;;;;;;;39.50;32.50;;;;;15.71;32.00;99444.81;7671588;22;97534;-64
2021/10/26 06:44:46;;;;;;;;;38.50;33.00;;;;;15.67;32.21;99455.34;7665084;22;97091;-63
2021/10/26 06:48:17;;;;;;;;;40.00;33.00;;;;;16.62;31.08;99451.94;7666813;22;97317;-63
2021/10/26 06:51:39;;;;;;;;;39.00;33.00;;;;;17.44;29.88;99452.94;7695272;22;97190;-64
2021/10/26 06:55:03;;;;;;;;;43.00;35.00;;;;;18.57;28.08;99459.41;7665789;22;98334;-64
2021/10/26 06:58:45;;;;;;;;;39.20;33.00;;;;;18.38;28.51;99460.84;7543205;23;96987;-63
2021/10/26 07:02:17;;;;;;;;;43.50;36.00;;;;;17.82;29.32;99456.72;7558895;22;97571;-64
2021/10/26 07:05:40;;;;;;;;;39.00;33.00;;;;;17.74;29.63;99464.25;7649113;22;96935;-64
2021/10/26 07:09:02;;;;;;;;;44.75;33.50;;;;;18.49;28.16;99460.69;7670389;22;96629;-63
2021/10/26 07:12:08;;;;;;;;;42.00;34.50;;;;;19.52;27.25;99460.38;7669908;22;97706;-63
2021/10/26 07:15:13;;;;;;;;;45.00;36.00;;;;;20.04;26.68;99449.34;7697170;22;97003;-63
2021/10/26 07:18:17;;;;;;;;;43.25;35.50;;;;;20.57;25.90;99461.81;7671663;22;96968;-63
2021/10/26 07:21:21;;;;;;;;;45.00;35.80;;;;;21.00;25.36;99461.28;7695904;22;97980;-64
2021/10/26 07:24:42;;;;;;;;;45.00;37.00;;;;;21.98;24.25;99455.28;7696436;22;96951;-64
2021/10/26 07:27:57;;;;;;;;;46.80;36.40;;;;;22.90;23.65;99461.81;7665924;22;97436;-63
2021/10/26 07:31:01;;;;;;;;;45.00;35.00;;;;;23.16;22.92;99468.72;7665248;22;97100;-64
2021/10/26 07:34:05;;;;;;;;;42.60;34.20;;;;;23.98;21.89;99463.94;7639198;22;98074;-64
2021/10/26 07:37:09;;;;;;;;;41.40;35.00;;;;;24.97;20.97;99450.09;7692818;22;97140;-64
2021/10/26 07:40:17;;;;;;;;;41.80;35.00;;;;;26.06;19.91;99452.09;7666395;22;97231;-64
2021/10/26 07:43:46;;;;;;;;;41.00;35.00;;;;;26.06;19.63;99446.56;7634221;22;97322;-63
2021/10/26 07:47:08;;;;;;;;;38.60;32.00;;;;;25.97;19.44;99449.25;7693359;22;97092;-64
2021/10/26 07:50:12;;;;;;;;;36.00;32.00;;;;;25.46;19.83;99446.69;7667724;22;97055;-64
2021/10/26 07:53:16;;;;;;;;;38.00;32.00;;;;;24.82;20.37;99442.88;7668292;22;97367;-64
2021/10/26 07:56:28;;;;;;;;;38.67;32.00;;;;;24.88;20.17;99443.59;7666847;22;97439;-64
2021/10/26 07:59:34;;;;;;;;;34.60;31.00;;;;;25.57;19.38;99442.63;7669749;22;97510;-63
2021/10/26 08:02:38;;;;;;;;;39.40;32.80;;;;;26.68;18.88;99436.59;7671895;22;96555;-63
2021/10/26 08:06:16;;;;;;;;;37.00;32.00;;;;;28.31;17.11;99447.59;7671667;22;97451;-63
2021/10/26 08:09:20;;;;;;;;;34.80;31.80;;;;;29.26;16.57;99437.22;7696471;22;97062;-64
2021/10/26 08:12:26;;;;;;;;;41.25;33.75;;;;;29.63;16.40;99439.22;7696657;22;96433;-64
2021/10/26 08:15:31;;;;;;;;;43.20;35.00;;;;;29.06;17.05;99437.94;7672262;22;96430;-64
2021/10/26 08:18:36;;;;;;;;;40.00;34.40;;;;;28.59;17.63;99431.47;7697091;22;96404;-63
2021/10/26 08:21:42;;;;;;;;;40.00;35.00;;;;;28.37;17.62;99426.88;7671004;22;97411;-64
2021/10/26 08:24:47;;;;;;;;;42.00;34.25;;;;;28.02;18.13;99437.91;7671808;22;97352;-63
2021/10/26 08:27:54;;;;;;;;;37.60;32.60;;;;;27.74;18.02;99432.94;7697829;22;96423;-64
2021/10/26 08:31:03;;;;;;;;;40.40;34.00;;;;;28.03;17.77;99430.41;7698511;22;97027;-63
2021/10/26 08:34:43;;;;;;;;;39.00;33.00;;;;;28.56;17.58;99426.56;7683021;22;96811;-64
2021/10/26 08:37:48;;;;;;;;;39.50;33.00;;;;;28.62;17.50;99430.78;7670487;22;97229;-63
2021/10/26 08:40:52;;;;;;;;;37.20;32.00;;;;;28.69;17.39;99436.66;7671915;22;97428;-64
2021/10/26 08:43:55;;;;;;;;;32.00;30.00;;;;;29.15;16.78;99445.09;7644852;22;98315;-64
2021/10/26 08:47:00;;;;;;;;;34.40;30.00;;;;;29.37;17.01;99435.72;7672454;22;97355;-63
2021/10/26 08:50:09;;;;;;;;;32.00;30.00;;;;;28.94;16.71;99432.25;7670897;22;98321;-63
2021/10/26 08:53:17;;;;;;;;;32.60;30.60;;;;;29.06;16.80;99437.94;7672675;22;97015;-64
2021/10/26 08:56:47;;;;;;;;;29.00;27.00;;;;;28.99;16.26;99432.88;7696400;22;96687;-64
2021/10/26 09:00:23;;;;;;;;;31.40;29.00;;;;;29.21;16.38;99432.69;7696072;22;97056;-64
2021/10/26 09:03:33;;;;;;;;;29.00;28.00;;;;;29.65;16.18;99430.56;7694436;22;97818;-63
2021/10/26 09:06:40;;;;;;;;;30.00;26.40;;;;;29.53;15.65;99436.00;7667955;22;96433;-64
2021/10/26 09:09:44;;;;;;;;;28.80;26.80;;;;;29.11;15.87;99432.22;7698017;22;96837;-64
2021/10/26 09:16:46;;;;;;;;;32.00;28.00;;;;;29.83;15.76;99436.84;7700188;22;96393;-65
2021/10/26 09:20:15;;;;;;;;;27.00;26.00;;;;;29.89;15.47;99424.41;7699899;22;96897;-64
2021/10/26 09:23:27;;;;;;;;;25.40;23.00;;;;;30.04;15.46;99435.75;7697581;22;97339;-63
2021/10/26 09:26:47;;;;;;;;;19.50;18.50;;;;;29.96;15.02;99431.06;7696015;22;97397;-64
2021/10/26 09:29:54;;;;;;;;;18.40;16.60;;;;;29.91;15.16;99431.25;7672639;22;97260;-64
2021/10/26 09:32:57;;;;;;;;;22.25;19.00;;;;;29.84;15.48;99432.91;7698062;22;96524;-64
2021/10/26 09:36:25;;;;;;;;;24.00;22.40;;;;;29.66;15.14;99430.22;7699677;22;96382;-64
2021/10/26 09:39:28;;;;;;;;;24.00;21.00;;;;;29.86;14.99;99423.06;7698998;22;96987;-64
2021/10/26 09:42:41;;;;;;;;;19.00;18.00;;;;;29.93;15.23;99414.25;7697574;22;96746;-63
2021/10/26 09:45:44;;;;;;;;;18.00;17.60;;;;;30.07;15.32;99425.91;7698990;22;96397;-63
2021/10/26 09:48:48;;;;;;;;;21.00;19.00;;;;;30.03;14.77;99420.22;7699254;22;97016;-64
2021/10/26 09:51:56;;;;;;;;;13.00;13.00;;;;;29.89;14.49;99427.19;7698502;22;96390;-64
2021/10/26 09:55:11;;;;;;;;;15.00;15.00;;;;;29.66;15.70;99430.22;7670476;22;97678;-64
2021/10/26 09:58:19;;;;;;;;;17.50;14.75;;;;;29.49;15.58;99421.16;7701258;22;97435;-64
2021/10/26 10:01:29;;;;;;;;;15.40;14.00;;;;;29.53;15.44;99411.81;7698886;22;96954;-64
2021/10/26 10:04:34;;;;;;;;;16.00;14.60;;;;;29.78;14.94;99406.44;7699645;22;97441;-64
2021/10/26 10:07:39;;;;;;;;;15.40;14.20;;;;;29.85;14.75;99417.88;7698873;22;97431;-64
2021/10/26 10:10:43;;;;;;;;;15.00;14.00;;;;;29.63;15.07;99411.44;7672484;22;98292;-64
2021/10/26 10:13:49;;;;;;;;;14.00;14.00;;;;;29.67;15.16;99404.06;7700519;22;97357;-63
2021/10/26 10:16:54;;;;;;;;;12.20;12.20;;;;;29.10;15.26;99397.25;7698303;22;96993;-64
2021/10/26 10:19:57;;;;;;;;;11.00;10.00;;;;;28.38;15.39;99384.97;7699069;22;96470;-63
2021/10/26 10:23:02;;;;;;;;;7.60;7.60;;;;;27.84;15.94;99388.31;7698275;22;96964;-64
2021/10/26 10:26:06;;;;;;;;;9.00;8.25;;;;;27.30;16.05;99384.06;7698824;22;96657;-63
2021/10/26 10:29:11;;;;;;;;;9.40;8.40;;;;;27.06;16.33;99384.44;7698155;22;97343;-64
2021/10/26 10:32:14;;;;;;;;;7.75;7.75;;;;;26.91;16.29;99380.13;7699723;22;97492;-65
2021/10/26 10:35:18;;;;;;;;;10.00;9.00;;;;;26.88;16.31;99375.22;7673520;22;97157;-64
2021/10/26 10:38:25;;;;;;;;;8.00;7.00;;;;;26.88;16.89;99369.69;7699391;22;96369;-64
2021/10/26 10:41:34;;;;;;;;;8.25;7.00;;;;;26.97;17.01;99369.75;7646522;22;97770;-64
2021/10/26 10:44:40;;;;;;;;;9.00;8.00;;;;;27.16;15.91;99359.25;7646204;22;96719;-64
2021/10/26 10:47:43;;;;;;;;;8.00;7.20;;;;;27.38;16.13;99363.88;7698061;22;96627;-65
2021/10/26 10:50:48;;;;;;;;;9.00;9.00;;;;;27.68;16.30;99357.47;7699884;22;96470;-63
2021/10/26 10:53:52;;;;;;;;;9.40;8.80;;;;;27.98;15.89;99348.22;7669883;22;96578;-65
2021/10/26 10:57:16;;;;;;;;;5.60;5.60;;;;;28.12;15.31;99341.72;7670844;22;98446;-64
2021/10/26 11:00:24;;;;;;;;;9.40;8.60;;;;;27.93;16.17;99325.41;7669249;22;96729;-64
2021/10/26 11:03:32;;;;;;;;;8.25;8.00;;;;;28.13;15.83;99333.09;7698470;22;97290;-63
2021/10/26 11:06:57;;;;;;;;;7.00;7.00;;;;;27.86;16.13;99336.16;7669862;22;97431;-65
2021/10/26 11:10:02;;;;;;;;;10.40;8.40;;;;;27.86;15.00;99342.50;7697639;22;97480;-64
2021/10/26 11:13:17;;;;;;;;;10.00;9.00;;;;;27.64;15.16;99334.34;7698632;22;97427;-64
2021/10/26 11:16:34;;;;;;;;;8.00;7.25;;;;;27.30;15.47;99335.03;7695515;22;96487;-65
2021/10/26 11:19:46;;;;;;;;;8.00;7.00;;;;;26.92;16.21;99320.06;7696091;22;96782;-64
2021/10/26 11:22:50;;;;;;;;;7.60;7.00;;;;;26.76;16.20;99324.34;7698961;22;97068;-64
2021/10/26 11:26:00;;;;;;;;;9.00;8.80;;;;;26.53;16.56;99315.28;7697765;22;96614;-63
2021/10/26 11:29:06;;;;;;;;;8.60;7.60;;;;;26.55;17.28;99301.94;7698155;22;96674;-64
2021/10/26 11:32:15;;;;;;;;;8.25;8.00;;;;;26.50;17.17;99302.06;7696444;22;97426;-64
2021/10/26 11:35:22;;;;;;;;;9.00;8.40;;;;;26.89;16.76;99307.69;7697140;22;97459;-65
2021/10/26 11:38:27;;;;;;;;;7.20;7.00;;;;;27.38;16.71;99302.97;7698152;22;96334;-65
2021/10/26 11:41:35;;;;;;;;;7.00;7.00;;;;;27.61;16.13;99298.16;7698369;22;96329;-65
2021/10/26 11:44:39;;;;;;;;;10.00;8.00;;;;;27.93;15.94;99306.00;7670600;22;98831;-65
2021/10/26 11:47:43;;;;;;;;;8.40;8.00;;;;;28.10;15.62;99297.66;7669741;22;96969;-64
2021/10/26 11:50:46;;;;;;;;;7.80;7.80;;;;;28.34;15.35;99302.75;7672733;22;96864;-64
2021/10/26 11:53:50;;;;;;;;;8.00;8.00;;;;;28.78;14.81;99296.78;7672092;22;98517;-65
2021/10/26 11:56:57;;;;;;;;;7.00;7.00;;;;;28.96;14.24;99293.94;7696655;22;96430;-64
2021/10/26 12:00:08;;;;;;;;;7.80;7.00;;;;;29.24;14.81;99293.16;7670304;22;96544;-65
2021/10/26 12:03:14;;;;;;;;;9.20;7.20;;;;;29.28;14.29;99293.28;7696958;22;96882;-65
2021/10/26 12:06:30;;;;;;;;;6.20;6.00;;;;;29.64;14.31;99290.00;7693094;22;97345;-65
2021/10/26 12:09:35;;;;;;;;;8.00;7.00;;;;;29.80;14.58;99296.56;7693292;22;97469;-64
2021/10/26 12:12:40;;;;;;;;;7.00;7.00;;;;;29.67;13.79;99290.13;7670326;22;99338;-65
2021/10/26 12:15:44;;;;;;;;;7.00;6.60;;;;;29.56;13.52;99280.56;7644359;22;98253;-63
2021/10/26 12:18:47;;;;;;;;;8.00;7.00;;;;;29.53;13.77;99286.78;7697512;22;97092;-63
2021/10/26 12:21:54;;;;;;;;;8.75;7.75;;;;;29.51;13.76;99280.78;7670260;22;97346;-63
2021/10/26 12:25:04;;;;;;;;;7.50;7.00;;;;;29.47;14.69;99276.22;7670109;22;96578;-64
2021/10/26 12:28:10;;;;;;;;;8.00;7.00;;;;;29.36;15.05;99278.59;7669021;22;97180;-64
2021/10/26 12:31:14;;;;;;;;;10.00;9.60;;;;;29.23;14.66;99274.03;7695620;22;96911;-64
2021/10/26 12:34:17;;;;;;;;;8.00;7.25;;;;;28.60;15.17;99278.53;7669928;22;98265;-64
2021/10/26 12:37:23;;;;;;;;;8.40;7.40;;;;;28.21;15.39;99265.72;7697371;22;96522;-63
2021/10/26 12:40:27;;;;;;;;;8.00;8.00;;;;;27.95;15.54;99268.50;7697864;22;97314;-65
2021/10/26 12:43:32;;;;;;;;;8.75;8.00;;;;;27.84;15.65;99272.75;7698771;22;97296;-65
2021/10/26 12:46:36;;;;;;;;;9.00;8.00;;;;;27.47;16.72;99265.03;7699259;22;97305;-65
2021/10/26 12:49:41;;;;;;;;;9.00;8.00;;;;;27.05;16.53;99258.25;7699715;22;98014;-64
2021/10/26 12:52:45;;;;;;;;;10.50;10.00;;;;;26.32;16.82;99265.22;7699337;22;97345;-63
2021/10/26 12:55:52;;;;;;;;;9.00;8.00;;;;;25.61;17.46;99266.91;7671005;22;98361;-64
2021/10/26 12:58:58;;;;;;;;;9.00;8.00;;;;;25.27;18.13;99261.03;7696921;22;97903;-64
2021/10/26 13:02:04;;;;;;;;;8.40;8.40;;;;;25.08;18.49;99261.16;7671382;22;97056;-63
2021/10/26 13:05:07;;;;;;;;;9.00;8.00;;;;;24.97;18.61;99260.53;7671164;22;98039;-63
2021/10/26 13:08:18;;;;;;;;;9.00;8.00;;;;;24.84;19.26;99258.59;7698446;22;97342;-64
2021/10/26 13:11:28;;;;;;;;;8.75;8.75;;;;;24.96;18.86;99261.69;7699520;22;97424;-65
2021/10/26 13:14:43;;;;;;;;;9.00;9.00;;;;;25.19;18.92;99265.34;7700904;22;97482;-65
2021/10/26 13:17:49;;;;;;;;;10.80;9.20;;;;;25.17;18.19;99248.28;7646212;22;97627;-64
2021/10/26 13:20:57;;;;;;;;;8.00;7.20;;;;;25.20;18.32;99253.19;7698865;22;97271;-64
2021/10/26 13:24:00;;;;;;;;;8.00;7.00;;;;;24.97;18.18;99257.78;7671647;22;97631;-65
2021/10/26 13:27:04;;;;;;;;;9.00;8.60;;;;;24.68;19.00;99251.72;7697656;22;97143;-64
2021/10/26 13:30:10;;;;;;;;;10.00;9.00;;;;;24.66;18.98;99258.69;7698371;22;97058;-63
2021/10/26 13:33:14;;;;;;;;;9.60;9.00;;;;;24.50;19.19;99255.38;7698175;22;96764;-63
2021/10/26 13:36:19;;;;;;;;;9.00;8.00;;;;;24.59;19.97;99259.91;7699353;22;96928;-64
2021/10/26 13:39:23;;;;;;;;;10.00;8.00;;;;;24.68;19.88;99264.72;7699932;22;96479;-63
2021/10/26 13:42:26;;;;;;;;;9.20;8.00;;;;;24.72;19.08;99263.81;7671897;22;96386;-63
2021/10/26 13:45:31;;;;;;;;;10.00;8.00;;;;;24.59;19.59;99267.34;7699237;22;96548;-63
2021/10/26 13:48:36;;;;;;;;;9.00;7.80;;;;;24.45;19.77;99255.47;7645792;22;96749;-64
2021/10/26 13:51:41;;;;;;;;;10.00;9.00;;;;;24.23;20.52;99258.09;7698380;22;97364;-63
2021/10/26 13:54:45;;;;;;;;;9.00;9.00;;;;;24.04;20.84;99263.63;7698802;22;97358;-64
2021/10/26 13:57:48;;;;;;;;;9.80;8.40;;;;;23.85;21.52;99262.84;7698259;22;96538;-64
2021/10/26 14:00:55;;;;;;;;;10.00;10.00;;;;;23.64;21.36;99265.91;7698217;22;97457;-64
2021/10/26 14:03:58;;;;;;;;;12.00;10.00;;;;;23.59;21.85;99267.91;7698294;22;97230;-63
2021/10/26 14:07:02;;;;;;;;;13.00;11.20;;;;;23.52;21.62;99261.94;7698170;22;97316;-64
2021/10/26 14:10:07;;;;;;;;;13.00;12.00;;;;;23.50;22.11;99255.94;7670514;22;97623;-64
2021/10/26 14:13:11;;;;;;;;;13.00;12.00;;;;;23.57;22.27;99273.69;7697281;22;96524;-64
2021/10/26 14:16:15;;;;;;;;;13.60;12.60;;;;;23.54;21.90;99267.97;7643702;22;99457;-69
2021/10/26 14:19:20;;;;;;;;;12.80;11.80;;;;;23.43;21.68;99272.78;7697192;22;96406;-70
2021/10/26 14:22:23;;;;;;;;;11.00;10.80;;;;;23.22;22.56;99274.16;7698056;22;96845;-66
2021/10/26 14:25:27;;;;;;;;;15.60;12.00;;;;;23.00;22.66;99271.97;7697614;22;97298;-65
2021/10/26 14:28:30;;;;;;;;;14.00;12.00;;;;;22.72;22.83;99275.59;7672657;22;97115;-66
2021/10/26 14:31:37;;;;;;;;;14.00;13.00;;;;;22.47;23.45;99276.66;7698289;22;96354;-67
2021/10/26 14:34:42;;;;;;;;;13.40;12.00;;;;;22.28;23.86;99287.53;7699770;22;97073;-66
2021/10/26 14:37:53;;;;;;;;;13.20;13.20;;;;;22.10;24.14;99285.47;7696482;22;97815;-69
2021/10/26 14:54:23;;;;;;;;;14.60;14.60;;;;;20.86;25.98;99268.34;7670008;22;97288;-66
2021/10/26 14:57:27;;;;;;;;;14.40;13.40;;;;;20.60;26.65;99264.84;7669533;22;98317;-68
2021/10/26 15:00:31;;;;;;;;;17.50;16.00;;;;;20.33;27.36;99260.81;7669797;22;96802;-70
2021/10/26 15:03:37;;;;;;;;;17.00;16.00;;;;;20.07;27.46;99265.44;7697128;22;96439;-66
2021/10/26 15:06:42;;;;;;;;;13.00;11.40;;;;;19.92;28.15;99276.38;7670693;22;97617;-68
2021/10/26 15:09:48;;;;;;;;;15.00;12.60;;;;;19.76;28.77;99279.09;7697279;22;96717;-68
2021/10/26 15:12:57;;;;;;;;;15.00;12.75;;;;;19.59;28.81;99273.06;7697264;22;96586;-64
2021/10/26 15:16:00;;;;;;;;;15.00;14.67;;;;;19.40;29.48;99277.38;7696734;22;97434;-65
2021/10/26 15:19:05;;;;;;;;;15.00;13.00;;;;;19.21;29.77;99285.22;7697998;22;96932;-64
2021/10/26 15:22:17;;;;;;;;;15.00;13.00;;;;;19.00;30.05;99287.09;7669982;22;96686;-65
2021/10/26 15:35:21;;;;;;;;;15.00;14.00;;;;;18.38;32.15;99306.06;7695876;22;97176;-64
2021/10/26 15:38:28;;;;;;;;;15.00;14.00;;;;;17.71;32.52;99224.78;7694263;22;97252;-66
2021/10/26 15:41:32;;;;;;;;;14.00;13.60;;;;;18.01;32.52;99313.41;7668817;22;97086;-66
2021/10/26 15:44:35;;;;;;;;;17.20;15.80;;;;;17.84;33.06;99313.53;7667781;22;96816;-63
2021/10/26 15:47:38;;;;;;;;;18.40;17.00;;;;;17.66;33.55;99317.44;7644544;22;96789;-65
2021/10/26 15:50:43;;;;;;;;;17.40;15.00;;;;;17.55;33.49;99315.66;7670227;22;98062;-66
2021/10/26 15:53:47;;;;;;;;;18.00;17.40;;;;;17.42;34.13;99316.06;7696892;22;96401;-67
2021/10/26 15:56:50;;;;;;;;;18.67;17.00;;;;;17.31;34.18;99326.03;7696434;22;97245;-67
2021/10/26 15:59:54;;;;;;;;;21.60;19.60;;;;;17.20;34.33;99324.25;7694452;22;98978;-65
2021/10/26 16:03:00;;;;;;;;;20.60;19.00;;;;;17.13;34.18;99331.81;7668557;22;99420;-67
2021/10/26 16:06:04;;;;;;;;;20.60;19.20;;;;;17.06;34.29;99341.22;7666148;22;99448;-63
2021/10/26 16:09:08;;;;;;;;;19.80;18.40;;;;;16.98;34.71;99344.41;7667208;22;98284;-67
2021/10/26 16:12:14;;;;;;;;;22.00;20.00;;;;;16.95;34.20;99339.47;7695118;22;96571;-66
2021/10/26 16:15:20;;;;;;;;;24.00;21.00;;;;;16.91;34.71;99341.06;7668257;22;100089;-64
2021/10/26 16:18:26;;;;;;;;;26.00;22.75;;;;;16.81;34.51;99339.00;7668550;22;96711;-67
2021/10/26 16:21:31;;;;;;;;;19.60;18.60;;;;;16.70;35.04;99339.94;7669652;22;97156;-67
2021/10/26 16:24:35;;;;;;;;;24.40;22.00;;;;;16.63;35.33;99337.38;7666138;22;97946;-66
2021/10/26 16:27:38;;;;;;;;;22.80;19.20;;;;;16.58;35.54;99341.88;7697996;22;97456;-63
2021/10/26 16:30:42;;;;;;;;;21.67;19.00;;;;;16.53;35.83;99347.25;7670637;22;99611;-65
2021/10/26 16:33:50;;;;;;;;;22.00;21.00;;;;;16.40;36.24;99342.97;7670950;22;97131;-66
2021/10/26 16:36:59;;;;;;;;;20.00;19.00;;;;;16.29;36.55;99343.88;7698398;22;96785;-67
2021/10/26 16:40:04;;;;;;;;;22.00;20.00;;;;;16.21;36.61;99349.75;7696758;22;96460;-64
2021/10/26 16:43:27;;;;;;;;;27.00;23.00;;;;;16.17;36.33;99356.75;7696555;22;97076;-67
2021/10/26 16:46:37;;;;;;;;;27.00;24.00;;;;;16.14;36.27;99362.69;7669013;22;97823;-66
2021/10/26 16:49:40;;;;;;;;;28.40;25.40;;;;;16.12;36.41;99354.78;7696813;22;98197;-63
2021/10/26 16:52:45;;;;;;;;;29.00;25.75;;;;;16.16;36.48;99363.28;7644732;22;98239;-64
2021/10/26 16:55:48;;;;;;;;;28.00;26.50;;;;;16.14;36.63;99365.41;7697871;22;96408;-66
2021/10/26 16:58:51;;;;;;;;;35.75;31.75;;;;;16.11;36.84;99369.44;7670909;22;97240;-63
2021/10/26 17:02:04;;;;;;;;;35.80;31.80;;;;;16.19;36.59;99376.38;7696193;22;96858;-66
2021/10/26 17:05:08;;;;;;;;;37.60;32.40;;;;;16.25;36.49;99370.78;7695738;22;97345;-65
2021/10/26 17:08:14;;;;;;;;;34.00;30.00;;;;;16.26;36.81;99372.44;7672133;22;97067;-64
2021/10/26 17:11:17;;;;;;;;;40.50;33.00;;;;;16.14;36.57;99352.63;7670622;22;97129;-64
2021/10/26 17:14:20;;;;;;;;;41.00;33.00;;;;;16.34;36.38;99387.50;7697870;22;96832;-67
2021/10/26 17:17:25;;;;;;;;;42.00;35.00;;;;;16.32;36.64;99385.03;7644528;22;96983;-66
2021/10/26 17:20:28;;;;;;;;;41.00;34.60;;;;;16.36;36.58;99393.53;7667439;22;100288;-65
2021/10/26 17:23:35;;;;;;;;;41.00;34.50;;;;;16.38;36.66;99394.09;7695506;22;96540;-66
2021/10/26 17:26:39;;;;;;;;;45.40;35.00;;;;;16.40;36.58;99400.13;7697208;22;97306;-64
2021/10/26 17:29:42;;;;;;;;;44.00;35.00;;;;;16.31;36.81;99390.72;7669209;22;98345;-66
2021/10/26 17:32:46;;;;;;;;;42.60;35.00;;;;;16.42;36.93;99401.53;7697491;22;97350;-63
2021/10/26 17:35:49;;;;;;;;;45.33;35.00;;;;;16.41;36.88;99412.69;7697621;22;97650;-66
2021/10/26 17:38:56;;;;;;;;;46.20;36.20;;;;;16.42;36.92;99417.03;7670360;22;98386;-65
2021/10/26 17:41:59;;;;;;;;;45.00;35.00;;;;;16.37;37.00;99408.81;7670566;22;97582;-65
2021/10/26 17:45:02;;;;;;;;;49.00;38.00;;;;;16.32;37.37;99406.00;7696974;22;96974;-67
2021/10/26 17:48:05;;;;;;;;;44.00;36.40;;;;;16.28;37.61;99412.97;7670226;22;97068;-65
2021/10/26 17:51:11;;;;;;;;;49.25;39.00;;;;;16.19;37.76;99409.84;7696256;22;96467;-62
2021/10/26 17:54:16;;;;;;;;;47.25;39.00;;;;;16.13;37.76;99409.97;7695470;22;96446;-65
2021/10/26 17:57:19;;;;;;;;;45.80;36.80;;;;;16.06;38.02;99409.31;7695235;22;96480;-63
2021/10/26 18:00:22;;;;;;;;;47.20;37.40;;;;;15.99;38.29;99407.56;7667706;22;96954;-63
2021/10/26 18:03:26;;;;;;;;;48.00;39.20;;;;;16.00;38.25;99416.56;7667869;22;97445;-65
2021/10/26 18:06:30;;;;;;;;;46.20;38.40;;;;;16.00;38.41;99411.94;7694517;22;97305;-63
2021/10/26 18:09:36;;;;;;;;;48.00;39.00;;;;;16.06;38.15;99412.06;7696351;22;96983;-65
2021/10/26 18:12:40;;;;;;;;;47.50;38.50;;;;;16.01;38.47;99419.06;7696657;22;97010;-65
2021/10/26 18:15:44;;;;;;;;;49.25;39.00;;;;;16.01;38.60;99419.06;7668570;22;98484;-65
2021/10/26 18:18:47;;;;;;;;;47.50;39.50;;;;;16.00;38.74;99422.84;7669187;22;96919;-66
2021/10/26 18:21:50;;;;;;;;;47.40;38.60;;;;;16.06;38.77;99423.75;7668778;22;97850;-65
2021/10/26 18:24:55;;;;;;;;;47.75;39.00;;;;;16.03;38.74;99426.94;7669785;22;98463;-66
2021/10/26 18:27:59;;;;;;;;;51.40;40.40;;;;;16.11;38.56;99429.28;7697558;22;97545;-65
2021/10/26 18:31:05;;;;;;;;;51.50;41.75;;;;;16.08;38.96;99426.25;7695761;22;97348;-63
2021/10/26 18:34:09;;;;;;;;;49.20;41.00;;;;;16.07;38.78;99428.13;7668612;22;97285;-63
2021/10/26 18:37:12;;;;;;;;;50.40;41.00;;;;;15.99;39.05;99437.50;7698533;22;97003;-65
2021/10/26 18:40:22;;;;;;;;;53.00;42.00;;;;;15.98;38.99;99435.84;7697218;22;96472;-66
2021/10/26 18:43:26;;;;;;;;;55.00;44.00;;;;;15.98;39.08;99435.00;7670536;22;98944;-63
2021/10/26 18:46:32;;;;;;;;;53.00;43.00;;;;;15.92;39.16;99439.56;7699755;22;96898;-63
2021/10/26 18:49:35;;;;;;;;;52.50;42.00;;;;;15.86;39.63;99440.50;7697959;22;96932;-66
2021/10/26 18:52:39;;;;;;;;;55.60;43.00;;;;;15.79;39.70;99444.44;7645386;22;96846;-66
2021/10/26 18:55:44;;;;;;;;;55.00;44.00;;;;;15.73;39.90;99443.53;7698441;22;97065;-63
2021/10/26 18:58:48;;;;;;;;;55.00;43.00;;;;;15.66;40.29;99444.72;7697822;22;97665;-66
2021/10/26 19:01:51;;;;;;;;;56.00;43.20;;;;;15.58;40.45;99441.31;7671058;22;97989;-64
2021/10/26 19:04:55;;;;;;;;;53.00;43.20;;;;;15.47;40.74;99438.59;7697342;22;97091;-65
2021/10/26 19:07:58;;;;;;;;;52.00;40.60;;;;;15.49;40.59;99439.19;7668150;22;97103;-65
2021/10/26 19:11:04;;;;;;;;;55.25;43.00;;;;;15.48;40.55;99432.09;7698740;22;96530;-63
2021/10/26 19:14:07;;;;;;;;;50.80;40.40;;;;;15.45;40.88;99435.28;7697848;22;97009;-63
2021/10/26 19:17:10;;;;;;;;;49.50;41.00;;;;;15.44;40.94;99439.09;7671769;22;96650;-64
2021/10/26 19:20:14;;;;;;;;;52.00;42.00;;;;;15.40;41.13;99438.72;7695955;22;97642;-65
2021/10/26 19:23:17;;;;;;;;;54.00;42.00;;;;;15.38;40.67;99448.19;7670406;22;97034;-64
2021/10/26 19:26:21;;;;;;;;;52.00;41.00;;;;;15.37;41.09;99455.50;7668650;22;96784;-65